Time,TemperatureF,DewpointF,PressureIn,WindDirection,WindDirectionDegrees,WindSpeedMPH,WindSpeedGustMPH,Humidity,HourlyPrecipIn,Conditions,Clouds,dailyrainin,SoftwareType,DateUTC
2013-01-29 00:01:00,10.0,5.0,-100.00,NNE,27,2.0,7.0,80,-99.99,,,-99.99,,2013-01-29 07:01:00,
2013-01-29 00:11:00,10.0,5.0,-100.00,WNW,285,3.0,9.0,77,-99.99,,,-99.99,,2013-01-29 07:11:00,
2013-01-29 00:21:00,10.0,5.0,-100.00,WNW,285,3.0,9.0,77,-99.99,,,-99.99,,2013-01-29 07:21:00,
2013-01-29 00:31:00,10.0,5.0,-100.00,WNW,285,3.0,9.0,77,-99.99,,,-99.99,,2013-01-29 07:31:00,
2013-01-29 00:41:00,10.0,5.0,-100.00,West,268,3.0,8.0,77,-99.99,,,-99.99,,2013-01-29 07:41:00,
2013-01-29 00:52:00,10.0,5.0,-100.00,West,268,3.0,8.0,77,-99.99,,,-99.99,,2013-01-29 07:52:00,
2013-01-29 01:02:00,10.0,5.0,-100.00,SSW,200,1.0,3.0,78,-99.99,,,-99.99,,2013-01-29 08:02:00,
2013-01-29 01:11:00,9.0,4.0,-100.00,SSW,193,4.0,9.0,79,-99.99,,,-99.99,,2013-01-29 08:11:00,
2013-01-29 01:21:00,9.0,4.0,-100.00,SSW,193,4.0,9.0,79,-99.99,,,-99.99,,2013-01-29 08:21:00,
2013-01-29 01:31:00,9.0,4.0,-100.00,SSW,193,4.0,9.0,79,-99.99,,,-99.99,,2013-01-29 08:31:00,
2013-01-29 01:41:00,9.0,5.0,-100.00,South,183,2.0,5.0,81,-99.99,,,-99.99,,2013-01-29 08:41:00,
2013-01-29 01:52:00,9.0,5.0,-100.00,South,183,2.0,5.0,81,-99.99,,,-99.99,,2013-01-29 08:52:00,
2013-01-29 02:01:00,9.0,4.0,-100.00,WSW,248,3.0,7.0,79,-99.99,,,-99.99,,2013-01-29 09:01:00,
2013-01-29 02:11:00,9.0,5.0,-100.00,SW,232,0.0,3.0,81,-99.99,,,-99.99,,2013-01-29 09:11:00,
2013-01-29 02:21:00,9.0,5.0,-100.00,SW,232,0.0,3.0,81,-99.99,,,-99.99,,2013-01-29 09:21:00,
2013-01-29 02:31:00,9.0,5.0,-100.00,SW,232,0.0,3.0,81,-99.99,,,-99.99,,2013-01-29 09:31:00,
2013-01-29 02:42:00,9.0,4.0,-100.00,SSE,152,1.0,4.0,80,-99.99,,,-99.99,,2013-01-29 09:42:00,
2013-01-29 02:52:00,9.0,4.0,-100.00,SSE,152,1.0,4.0,80,-99.99,,,-99.99,,2013-01-29 09:52:00,
2013-01-29 03:01:00,9.0,4.0,-100.00,ESE,114,1.0,4.0,79,-99.99,,,-99.99,,2013-01-29 10:01:00,
2013-01-29 03:11:00,9.0,4.0,-100.00,SE,131,2.0,4.0,80,-99.99,,,-99.99,,2013-01-29 10:11:00,
2013-01-29 03:21:00,9.0,4.0,-100.00,SE,131,2.0,4.0,80,-99.99,,,-99.99,,2013-01-29 10:21:00,
2013-01-29 03:32:00,9.0,4.0,-100.00,SE,131,2.0,4.0,80,-99.99,,,-99.99,,2013-01-29 10:32:00,
2013-01-29 03:41:00,9.0,4.0,-100.00,ESE,109,0.0,3.0,81,-99.99,,,-99.99,,2013-01-29 10:41:00,
2013-01-29 03:52:00,9.0,4.0,-100.00,ESE,109,0.0,3.0,81,-99.99,,,-99.99,,2013-01-29 10:52:00,
2013-01-29 04:01:00,9.0,4.0,-100.00,ESE,114,0.0,2.0,81,-99.99,,,-99.99,,2013-01-29 11:01:00,
2013-01-29 04:11:00,9.0,5.0,-100.00,South,169,1.0,5.0,82,-99.99,,,-99.99,,2013-01-29 11:11:00,
2013-01-29 04:21:00,9.0,5.0,-100.00,South,169,1.0,5.0,82,-99.99,,,-99.99,,2013-01-29 11:21:00,
2013-01-29 04:31:00,9.0,5.0,-100.00,South,169,1.0,5.0,82,-99.99,,,-99.99,,2013-01-29 11:31:00,
2013-01-29 04:42:00,9.0,6.0,-100.00,SSW,205,1.0,3.0,87,-99.99,,,-99.99,,2013-01-29 11:42:00,
2013-01-29 04:52:00,9.0,6.0,-100.00,South,173,4.0,7.0,88,-99.99,,,-99.99,,2013-01-29 11:52:00,
2013-01-29 05:02:00,9.0,6.0,-100.00,South,173,4.0,7.0,88,-99.99,,,-99.99,,2013-01-29 12:02:00,
2013-01-29 05:12:00,9.0,7.0,-100.00,SE,143,2.0,5.0,88,-99.99,,,-99.99,,2013-01-29 12:12:00,
2013-01-29 05:22:00,9.0,7.0,-100.00,SE,143,2.0,5.0,88,-99.99,,,-99.99,,2013-01-29 12:22:00,
2013-01-29 05:32:00,9.0,7.0,-100.00,SE,143,2.0,5.0,88,-99.99,,,-99.99,,2013-01-29 12:32:00,
2013-01-29 05:42:00,9.0,7.0,-100.00,SSE,147,2.0,4.0,89,-99.99,,,-99.99,,2013-01-29 12:42:00,
2013-01-29 05:52:00,9.0,7.0,-100.00,SSE,147,2.0,4.0,89,-99.99,,,-99.99,,2013-01-29 12:52:00,
2013-01-29 06:01:00,10.0,7.0,-100.00,SSE,154,0.0,3.0,89,-99.99,,,-99.99,,2013-01-29 13:01:00,
2013-01-29 06:11:00,10.0,7.0,-100.00,SSE,159,0.0,0.0,89,-99.99,,,-99.99,,2013-01-29 13:11:00,
2013-01-29 06:22:00,10.0,7.0,-100.00,SSE,159,0.0,0.0,89,-99.99,,,-99.99,,2013-01-29 13:22:00,
2013-01-29 06:31:00,10.0,7.0,-100.00,SSE,159,0.0,0.0,89,-99.99,,,-99.99,,2013-01-29 13:31:00,
2013-01-29 06:42:00,9.0,7.0,-100.00,SSE,156,2.0,5.0,90,-99.99,,,-99.99,,2013-01-29 13:42:00,
2013-01-29 06:52:00,9.0,7.0,-100.00,SSE,156,2.0,5.0,90,-99.99,,,-99.99,,2013-01-29 13:52:00,
2013-01-29 07:02:00,10.0,8.0,-100.00,SE,136,0.0,3.0,90,-99.99,,,-99.99,,2013-01-29 14:02:00,
2013-01-29 07:12:00,10.0,8.0,-100.00,SE,133,0.0,3.0,90,-99.99,,,-99.99,,2013-01-29 14:12:00,
2013-01-29 07:21:00,10.0,8.0,-100.00,SE,133,0.0,3.0,90,-99.99,,,-99.99,,2013-01-29 14:21:00,
2013-01-29 07:32:00,10.0,8.0,-100.00,SE,133,0.0,3.0,90,-99.99,,,-99.99,,2013-01-29 14:32:00,
2013-01-29 07:43:00,10.0,8.0,-100.00,SSE,148,2.0,4.0,91,-99.99,,,-99.99,,2013-01-29 14:43:00,
2013-01-29 07:52:00,10.0,8.0,-100.00,SSE,148,2.0,4.0,91,-99.99,,,-99.99,,2013-01-29 14:52:00,
2013-01-29 08:02:00,10.0,8.0,-100.00,East,101,0.0,3.0,90,-99.99,,,-99.99,,2013-01-29 15:02:00,
2013-01-29 08:11:00,10.0,8.0,-100.00,SE,134,1.0,3.0,90,-99.99,,,-99.99,,2013-01-29 15:11:00,
2013-01-29 08:22:00,10.0,8.0,-100.00,SE,134,1.0,3.0,90,-99.99,,,-99.99,,2013-01-29 15:22:00,
2013-01-29 08:32:00,10.0,8.0,-100.00,SE,134,1.0,3.0,90,-99.99,,,-99.99,,2013-01-29 15:32:00,
2013-01-29 08:42:00,11.0,9.0,-100.00,ESE,121,0.0,2.0,90,-99.99,,,-99.99,,2013-01-29 15:42:00,
2013-01-29 08:53:00,11.0,9.0,-100.00,ESE,121,0.0,2.0,90,-99.99,,,-99.99,,2013-01-29 15:53:00,
2013-01-29 09:02:00,11.0,9.0,-100.00,South,173,0.0,3.0,88,-99.99,,,-99.99,,2013-01-29 16:02:00,
2013-01-29 09:12:00,11.0,9.0,-100.00,SSE,162,2.0,5.0,89,-99.99,,,-99.99,,2013-01-29 16:12:00,
2013-01-29 09:22:00,11.0,9.0,-100.00,SSE,162,2.0,5.0,89,-99.99,,,-99.99,,2013-01-29 16:22:00,
2013-01-29 09:32:00,11.0,9.0,-100.00,SSE,162,2.0,5.0,89,-99.99,,,-99.99,,2013-01-29 16:32:00,
2013-01-29 09:42:00,12.0,9.0,-100.00,South,186,1.0,5.0,86,-99.99,,,-99.99,,2013-01-29 16:42:00,
2013-01-29 09:53:00,12.0,9.0,-100.00,South,186,1.0,5.0,86,-99.99,,,-99.99,,2013-01-29 16:53:00,
2013-01-29 10:02:00,13.0,9.0,-100.00,North,353,2.0,4.0,85,-99.99,,,-99.99,,2013-01-29 17:02:00,
2013-01-29 10:12:00,12.0,9.0,-100.00,NE,46,1.0,2.0,87,-99.99,,,-99.99,,2013-01-29 17:12:00,
2013-01-29 10:21:00,12.0,9.0,-100.00,NE,46,1.0,2.0,87,-99.99,,,-99.99,,2013-01-29 17:21:00,
2013-01-29 10:30:00,13.0,10.0,-100.00,North,350,1.0,3.0,86,-99.99,,,-99.99,,2013-01-29 17:30:00,
2013-01-29 10:32:00,12.0,9.0,-100.00,NE,46,1.0,2.0,87,-99.99,,,-99.99,,2013-01-29 17:32:00,
2013-01-29 10:42:00,14.0,10.0,-100.00,NNW,336,1.0,3.0,84,-99.99,,,-99.99,,2013-01-29 17:42:00,
2013-01-29 10:52:00,14.0,10.0,-100.00,NNW,336,1.0,3.0,84,-99.99,,,-99.99,,2013-01-29 17:52:00,
2013-01-29 11:03:00,13.0,10.0,-100.00,North,350,1.0,3.0,86,-99.99,,,-99.99,,2013-01-29 18:03:00,
2013-01-29 11:12:00,13.0,10.0,-100.00,North,350,1.0,3.0,86,-99.99,,,-99.99,,2013-01-29 18:12:00,
2013-01-29 11:22:00,13.0,10.0,-100.00,North,350,1.0,3.0,86,-99.99,,,-99.99,,2013-01-29 18:22:00,
2013-01-29 11:42:00,13.0,10.0,-100.00,NNE,13,2.0,4.0,88,-99.99,,,-99.99,,2013-01-29 18:42:00,
2013-01-29 11:52:00,13.0,10.0,-100.00,NNE,13,2.0,4.0,88,-99.99,,,-99.99,,2013-01-29 18:52:00,
2013-01-29 12:02:00,13.0,11.0,-100.00,North,2,3.0,6.0,89,-99.99,,,-99.99,,2013-01-29 19:02:00,
2013-01-29 12:11:00,13.0,11.0,-100.00,North,359,4.0,6.0,91,-99.99,,,-99.99,,2013-01-29 19:11:00,
2013-01-29 12:22:00,13.0,11.0,-100.00,North,359,4.0,6.0,91,-99.99,,,-99.99,,2013-01-29 19:22:00,
2013-01-29 12:31:00,13.0,11.0,-100.00,North,359,4.0,6.0,91,-99.99,,,-99.99,,2013-01-29 19:31:00,
2013-01-29 12:42:00,14.0,11.0,-100.00,NNW,346,8.0,21.0,85,-99.99,,,-99.99,,2013-01-29 19:42:00,
2013-01-29 12:52:00,14.0,11.0,-100.00,NNW,346,8.0,21.0,85,-99.99,,,-99.99,,2013-01-29 19:52:00,
2013-01-29 13:02:00,15.0,11.0,-100.00,North,350,10.0,22.0,85,-99.99,,,-99.99,,2013-01-29 20:02:00,
2013-01-29 13:12:00,15.0,11.0,-100.00,NNW,348,11.0,23.0,85,-99.99,,,-99.99,,2013-01-29 20:12:00,
2013-01-29 13:22:00,15.0,11.0,-100.00,NNW,348,11.0,23.0,85,-99.99,,,-99.99,,2013-01-29 20:22:00,
2013-01-29 13:32:00,15.0,11.0,-100.00,NNW,348,11.0,23.0,85,-99.99,,,-99.99,,2013-01-29 20:32:00,
2013-01-29 13:42:00,16.0,11.0,-100.00,NNW,341,13.0,23.0,79,-99.99,,,-99.99,,2013-01-29 20:42:00,
2013-01-29 13:53:00,16.0,11.0,-100.00,NNW,341,13.0,23.0,79,-99.99,,,-99.99,,2013-01-29 20:53:00,
2013-01-29 14:02:00,15.0,10.0,-100.00,NNW,346,14.0,27.0,77,-99.99,,,-99.99,,2013-01-29 21:02:00,
2013-01-29 14:12:00,15.0,9.0,-100.00,North,349,15.0,27.0,76,-99.99,,,-99.99,,2013-01-29 21:12:00,
2013-01-29 14:22:00,15.0,9.0,-100.00,North,349,15.0,27.0,76,-99.99,,,-99.99,,2013-01-29 21:22:00,
2013-01-29 14:32:00,15.0,9.0,-100.00,North,349,15.0,27.0,76,-99.99,,,-99.99,,2013-01-29 21:32:00,
2013-01-29 14:42:00,16.0,9.0,-100.00,NNW,342,13.0,24.0,74,-99.99,,,-99.99,,2013-01-29 21:42:00,
2013-01-29 14:53:00,16.0,9.0,-100.00,NNW,342,13.0,24.0,74,-99.99,,,-99.99,,2013-01-29 21:53:00,
2013-01-29 15:02:00,15.0,9.0,-100.00,NNW,344,12.0,21.0,76,-99.99,,,-99.99,,2013-01-29 22:02:00,
2013-01-29 15:12:00,15.0,9.0,-100.00,NNW,332,11.0,20.0,77,-99.99,,,-99.99,,2013-01-29 22:12:00,
2013-01-29 15:21:00,15.0,9.0,-100.00,NNW,332,11.0,20.0,77,-99.99,,,-99.99,,2013-01-29 22:21:00,
2013-01-29 15:32:00,15.0,9.0,-100.00,NNW,332,11.0,20.0,77,-99.99,,,-99.99,,2013-01-29 22:32:00,
2013-01-29 15:42:00,15.0,9.0,-100.00,NNW,340,14.0,27.0,78,-99.99,,,-99.99,,2013-01-29 22:42:00,
2013-01-29 15:53:00,15.0,9.0,-100.00,NNW,340,14.0,27.0,78,-99.99,,,-99.99,,2013-01-29 22:53:00,
2013-01-29 16:02:00,15.0,9.0,-100.00,NNW,342,14.0,25.0,78,-99.99,,,-99.99,,2013-01-29 23:02:00,
2013-01-29 16:11:00,15.0,9.0,-100.00,NNW,342,13.0,26.0,77,-99.99,,,-99.99,,2013-01-29 23:11:00,
2013-01-29 16:22:00,15.0,9.0,-100.00,NNW,342,13.0,26.0,77,-99.99,,,-99.99,,2013-01-29 23:22:00,
2013-01-29 16:32:00,15.0,9.0,-100.00,NNW,342,13.0,26.0,77,-99.99,,,-99.99,,2013-01-29 23:32:00,
2013-01-29 16:42:00,14.0,9.0,-100.00,North,349,13.0,23.0,77,-99.99,,,-99.99,,2013-01-29 23:42:00,
2013-01-29 16:53:00,14.0,9.0,-100.00,North,349,13.0,23.0,77,-99.99,,,-99.99,,2013-01-29 23:53:00,
2013-01-29 17:02:00,14.0,8.0,-100.00,NNW,345,15.0,26.0,75,-99.99,,,-99.99,,2013-01-30 00:02:00,
2013-01-29 17:11:00,14.0,7.0,-100.00,NNW,345,15.0,25.0,74,-99.99,,,-99.99,,2013-01-30 00:11:00,
2013-01-29 17:22:00,14.0,7.0,-100.00,NNW,345,15.0,25.0,74,-99.99,,,-99.99,,2013-01-30 00:22:00,
2013-01-29 17:32:00,14.0,7.0,-100.00,NNW,345,15.0,25.0,74,-99.99,,,-99.99,,2013-01-30 00:32:00,
2013-01-29 17:42:00,14.0,7.0,-100.00,NNW,346,18.0,30.0,73,-99.99,,,-99.99,,2013-01-30 00:42:00,
2013-01-29 17:53:00,14.0,7.0,-100.00,NNW,346,18.0,30.0,73,-99.99,,,-99.99,,2013-01-30 00:53:00,
2013-01-29 18:01:00,14.0,7.0,-100.00,NNW,346,18.0,30.0,73,-99.99,,,-99.99,,2013-01-30 01:01:00,
2013-01-29 18:11:00,13.0,7.0,-100.00,NNW,341,19.0,31.0,77,-99.99,,,-99.99,,2013-01-30 01:11:00,
2013-01-29 18:22:00,13.0,7.0,-100.00,NNW,341,19.0,31.0,77,-99.99,,,-99.99,,2013-01-30 01:22:00,
2013-01-29 18:32:00,13.0,7.0,-100.00,NNW,341,19.0,31.0,77,-99.99,,,-99.99,,2013-01-30 01:32:00,
2013-01-29 18:42:00,13.0,6.0,-100.00,NNW,343,18.0,33.0,73,-99.99,,,-99.99,,2013-01-30 01:42:00,
2013-01-29 18:52:00,13.0,6.0,-100.00,NNW,343,18.0,33.0,73,-99.99,,,-99.99,,2013-01-30 01:52:00,
2013-01-29 19:02:00,13.0,6.0,-100.00,NNW,344,18.0,34.0,73,-99.99,,,-99.99,,2013-01-30 02:02:00,
2013-01-29 19:12:00,13.0,6.0,-100.00,NNW,343,17.0,32.0,73,-99.99,,,-99.99,,2013-01-30 02:12:00,
2013-01-29 19:21:00,13.0,6.0,-100.00,NNW,343,17.0,32.0,73,-99.99,,,-99.99,,2013-01-30 02:21:00,
2013-01-29 19:33:00,13.0,6.0,-100.00,NNW,343,17.0,32.0,73,-99.99,,,-99.99,,2013-01-30 02:33:00,
2013-01-29 19:42:00,13.0,6.0,-100.00,NNW,337,16.0,25.0,72,-99.99,,,-99.99,,2013-01-30 02:42:00,
2013-01-29 19:53:00,13.0,6.0,-100.00,NNW,337,16.0,25.0,72,-99.99,,,-99.99,,2013-01-30 02:53:00,
2013-01-29 20:02:00,13.0,6.0,-100.00,NNW,337,16.0,25.0,72,-99.99,,,-99.99,,2013-01-30 03:02:00,
2013-01-29 20:11:00,13.0,6.0,-100.00,NNW,345,15.0,28.0,74,-99.99,,,-99.99,,2013-01-30 03:11:00,
2013-01-29 20:22:00,13.0,6.0,-100.00,NNW,345,15.0,28.0,74,-99.99,,,-99.99,,2013-01-30 03:22:00,
2013-01-29 20:32:00,13.0,6.0,-100.00,NNW,345,15.0,28.0,74,-99.99,,,-99.99,,2013-01-30 03:32:00,
2013-01-29 20:42:00,13.0,7.0,-100.00,NNW,341,11.0,17.0,75,-99.99,,,-99.99,,2013-01-30 03:42:00,
2013-01-29 20:52:00,13.0,7.0,-100.00,NNW,341,11.0,17.0,75,-99.99,,,-99.99,,2013-01-30 03:52:00,
2013-01-29 21:02:00,13.0,6.0,-100.00,NNW,346,11.0,21.0,74,-99.99,,,-99.99,,2013-01-30 04:02:00,
2013-01-29 21:11:00,13.0,6.0,-100.00,NNW,346,10.0,16.0,73,-99.99,,,-99.99,,2013-01-30 04:11:00,
2013-01-29 21:22:00,13.0,6.0,-100.00,NNW,346,10.0,16.0,73,-99.99,,,-99.99,,2013-01-30 04:22:00,
2013-01-29 21:31:00,13.0,6.0,-100.00,NNW,346,10.0,16.0,73,-99.99,,,-99.99,,2013-01-30 04:31:00,
2013-01-29 21:41:00,13.0,7.0,-100.00,North,352,8.0,12.0,78,-99.99,,,-99.99,,2013-01-30 04:41:00,
2013-01-29 21:52:00,13.0,7.0,-100.00,North,352,8.0,12.0,78,-99.99,,,-99.99,,2013-01-30 04:52:00,
2013-01-29 22:03:00,12.0,8.0,-100.00,North,349,7.0,13.0,84,-99.99,,,-99.99,,2013-01-30 05:03:00,
2013-01-29 22:11:00,12.0,8.0,-100.00,NNW,344,7.0,12.0,83,-99.99,,,-99.99,,2013-01-30 05:11:00,
2013-01-29 22:22:00,12.0,8.0,-100.00,NNW,344,7.0,12.0,83,-99.99,,,-99.99,,2013-01-30 05:22:00,
2013-01-29 22:32:00,12.0,8.0,-100.00,NNW,344,7.0,12.0,83,-99.99,,,-99.99,,2013-01-30 05:32:00,
2013-01-29 22:42:00,13.0,8.0,-100.00,NNW,339,8.0,16.0,76,-99.99,,,-99.99,,2013-01-30 05:42:00,
2013-01-29 22:52:00,14.0,8.0,-100.00,NNW,339,9.0,17.0,75,-99.99,,,-99.99,,2013-01-30 05:52:00,
2013-01-29 23:02:00,14.0,8.0,-100.00,NNW,339,9.0,17.0,75,-99.99,,,-99.99,,2013-01-30 06:02:00,
2013-01-29 23:11:00,14.0,8.0,-100.00,NNW,339,11.0,19.0,77,-99.99,,,-99.99,,2013-01-30 06:11:00,
2013-01-29 23:21:00,14.0,8.0,-100.00,NNW,339,11.0,19.0,77,-99.99,,,-99.99,,2013-01-30 06:21:00,
2013-01-29 23:31:00,14.0,8.0,-100.00,NNW,339,11.0,19.0,77,-99.99,,,-99.99,,2013-01-30 06:31:00,
2013-01-29 23:41:00,14.0,9.0,-100.00,NNW,336,9.0,16.0,76,-99.99,,,-99.99,,2013-01-30 06:41:00,
2013-01-29 23:52:00,14.0,9.0,-100.00,NNW,336,9.0,16.0,76,-99.99,,,-99.99,,2013-01-30 06:52:00,